Time;durP1;ratioP1;P1;durP2;ratioP2;P2;SDS_P1;SDS_P2;PMS_P1;PMS_P2;Temp;Humidity;BMP_temperature;BMP_pressure;BME280_temperature;BME280_humidity;BME280_pressure;Samples;Min_cycle;Max_cycle;Signal;HPM_P1;HPM_P2
2021/08/03 00:00:53;;;;;;;6.05;4.05;;;;;;;19.66;74.05;100122.31;5055433;28;20049;-86
2021/08/03 00:03:28;;;;;;;7.07;3.72;;;;;;;19.60;74.66;100122.97;5055026;28;20472;-87
2021/08/03 00:05:58;;;;;;;7.30;3.83;;;;;;;19.37;75.92;100115.22;5055520;28;20055;-85
2021/08/03 00:08:30;;;;;;;6.35;4.30;;;;;;;19.39;76.29;100120.47;5054893;28;20115;-83
2021/08/03 00:10:58;;;;;;;9.70;4.35;;;;;;;19.33;76.82;100116.53;5055267;28;20040;-88
2021/08/03 00:13:28;;;;;;;7.28;3.80;;;;;;;19.30;76.93;100121.38;5054824;28;20475;-88
2021/08/03 00:16:02;;;;;;;5.63;4.18;;;;;;;19.42;76.38;100120.19;5055728;28;20049;-86
2021/08/03 00:18:31;;;;;;;5.97;3.97;;;;;;;19.36;76.01;100112.69;5054630;28;20037;-85
2021/08/03 00:20:59;;;;;;;5.72;3.78;;;;;;;19.26;76.66;100118.16;5054922;28;20145;-85
2021/08/03 00:23:28;;;;;;;6.43;4.20;;;;;;;19.32;76.58;100120.25;5054559;28;20068;-84
2021/08/03 00:25:56;;;;;;;7.40;4.20;;;;;;;19.18;77.11;100115.34;5054815;28;20049;-85
2021/08/03 00:28:25;;;;;;;7.10;3.58;;;;;;;19.19;77.42;100121.59;5054676;28;20048;-85
2021/08/03 00:30:53;;;;;;;5.70;3.95;;;;;;;19.18;77.57;100128.84;5055346;28;20037;-82
2021/08/03 00:33:24;;;;;;;7.03;4.35;;;;;;;19.14;78.52;100128.31;5054475;28;20037;-83
2021/08/03 00:35:52;;;;;;;7.80;4.03;;;;;;;19.09;79.19;100129.75;5054788;28;20044;-82
2021/08/03 00:38:21;;;;;;;6.60;4.47;;;;;;;18.95;79.80;100130.25;5054457;28;20045;-82
2021/08/03 00:40:55;;;;;;;6.07;4.15;;;;;;;18.98;79.79;100138.06;5054690;28;20045;-84
2021/08/03 00:43:23;;;;;;;7.15;4.60;;;;;;;18.99;79.04;100135.22;5054569;28;20040;-86
2021/08/03 00:45:51;;;;;;;7.57;4.25;;;;;;;18.87;79.35;100139.97;5053407;28;20068;-80
2021/08/03 00:48:20;;;;;;;6.93;4.28;;;;;;;18.74;80.06;100135.91;5054060;28;20045;-80
2021/08/03 00:50:50;;;;;;;8.45;4.57;;;;;;;18.78;79.18;100135.44;5054249;28;20147;-80
2021/08/03 00:53:18;;;;;;;6.85;4.32;;;;;;;18.86;79.08;100135.56;5054239;28;20037;-83
2021/08/03 00:55:47;;;;;;;7.68;4.30;;;;;;;18.98;78.46;100138.06;5054144;28;20488;-83
2021/08/03 00:58:16;;;;;;;6.82;4.65;;;;;;;18.80;79.69;100138.00;5053943;28;20408;-84
2021/08/03 01:00:44;;;;;;;6.57;4.25;;;;;;;18.81;79.51;100137.84;5054124;28;20045;-83
2021/08/03 01:03:13;;;;;;;8.68;4.50;;;;;;;18.81;79.74;100143.25;5053825;28;20144;-77
2021/08/03 01:05:54;;;;;;;7.15;4.18;;;;;;;18.80;79.59;100141.53;5053957;28;20480;-82
2021/08/03 01:08:29;;;;;;;5.50;4.30;;;;;;;18.74;79.69;100136.75;5053919;28;20044;-85
2021/08/03 01:11:04;;;;;;;6.53;4.55;;;;;;;18.67;80.30;100150.97;5054205;28;20408;-82
2021/08/03 01:13:40;;;;;;;9.10;4.47;;;;;;;18.62;79.84;100137.00;5053737;28;20045;-82
2021/08/03 01:16:18;;;;;;;7.05;4.43;;;;;;;18.63;80.46;100142.28;5054052;28;20045;-79
2021/08/03 01:18:55;;;;;;;7.18;4.80;;;;;;;18.77;79.10;100135.59;5053862;28;20071;-80
2021/08/03 01:21:46;;;;;;;6.30;4.28;;;;;;;18.98;77.93;100132.66;5053536;28;20507;-80
2021/08/03 01:24:29;;;;;;;6.63;4.22;;;;;;;18.79;79.93;100139.84;5053326;28;20419;-80
2021/08/03 01:27:23;;;;;;;5.95;4.05;;;;;;;18.74;79.93;100138.59;5053504;28;20053;-80
2021/08/03 01:29:52;;;;;;;7.32;4.35;;;;;;;18.72;79.25;100146.84;5053825;28;20068;-80
2021/08/03 01:32:26;;;;;;;7.07;4.40;;;;;;;18.56;80.25;100152.81;5053285;28;20044;-80
2021/08/03 01:34:57;;;;;;;9.82;4.45;;;;;;;18.43;81.48;100148.72;5052842;28;20059;-80
2021/08/03 01:37:27;;;;;;;7.60;4.53;;;;;;;18.39;82.54;100144.63;5053204;28;20045;-79
2021/08/03 01:40:00;;;;;;;9.15;4.60;;;;;;;18.31;83.85;100151.59;5053723;28;20399;-78
2021/08/03 01:42:29;;;;;;;;;;;;;;;18.24;85.31;100150.47;5053613;28;20045;-78
2021/08/03 01:45:00;;;;;;;6.90;4.18;;;;;;;18.16;87.29;100150.34;5053251;28;19925;-78
2021/08/03 01:47:30;;;;;;;7.10;4.60;;;;;;;18.11;87.66;100158.00;5053241;28;20048;-82
2021/08/03 01:50:00;;;;;;;6.95;4.47;;;;;;;18.22;87.02;100147.03;5053354;28;20446;-82
2021/08/03 01:52:29;;;;;;;8.68;4.13;;;;;;;18.49;83.71;100149.00;5053013;28;20048;-81
2021/08/03 01:54:58;;;;;;;6.80;4.00;;;;;;;18.45;83.45;100147.59;5053379;28;20403;-82
2021/08/03 01:57:28;;;;;;;7.32;4.03;;;;;;;18.52;83.66;100155.94;5052800;28;20045;-81
2021/08/03 01:59:59;;;;;;;6.80;4.32;;;;;;;18.43;83.72;100164.91;5053208;28;20102;-82
2021/08/03 02:02:28;;;;;;;6.95;4.53;;;;;;;18.44;83.29;100161.25;5052800;28;20041;-81
2021/08/03 02:04:58;;;;;;;7.45;4.43;;;;;;;18.30;83.74;100162.53;5052954;28;20037;-81
2021/08/03 02:07:28;;;;;;;8.02;4.55;;;;;;;18.18;85.11;100161.84;5052678;28;20094;-77
2021/08/03 02:09:57;;;;;;;8.45;4.35;;;;;;;18.10;84.89;100169.78;5052762;28;20114;-78
2021/08/03 02:12:25;;;;;;;6.38;4.30;;;;;;;18.15;84.50;100167.53;5052737;28;20076;-78
2021/08/03 02:14:57;;;;;;;7.30;4.10;;;;;;;18.04;85.69;100170.34;5052857;28;20499;-78
2021/08/03 02:17:26;;;;;;;6.00;4.22;;;;;;;18.18;85.25;100169.94;5051352;28;20048;-78
2021/08/03 02:19:55;;;;;;;7.15;4.50;;;;;;;18.08;85.72;100163.69;5052887;28;20036;-78
2021/08/03 02:22:23;;;;;;;6.50;4.15;;;;;;;18.05;85.87;100165.81;5052424;28;20048;-76
2021/08/03 02:24:52;;;;;;;7.22;3.85;;;;;;;17.92;86.56;100168.78;5052938;28;20049;-76
2021/08/03 02:27:20;;;;;;;8.65;4.10;;;;;;;17.90;86.94;100168.09;5052315;28;20080;-76
2021/08/03 02:29:50;;;;;;;6.28;4.45;;;;;;;17.96;86.86;100163.00;5052878;28;20499;-81
2021/08/03 02:32:23;;;;;;;7.68;4.18;;;;;;;17.87;87.31;100160.28;5051076;28;20041;-75
2021/08/03 02:34:58;;;;;;;7.50;4.68;;;;;;;17.78;88.39;100166.53;5052669;28;20047;-75
2021/08/03 02:37:32;;;;;;;6.50;4.38;;;;;;;17.59;90.33;100170.84;5052271;28;20045;-77
2021/08/03 02:40:05;;;;;;;7.88;4.78;;;;;;;17.59;90.51;100168.16;5052628;28;20091;-77
2021/08/03 02:42:37;;;;;;;9.88;4.88;;;;;;;17.67;90.23;100172.88;5055719;28;20056;-77
2021/08/03 02:45:08;;;;;;;8.05;5.00;;;;;;;17.53;90.88;100174.09;5056714;28;20080;-78
2021/08/03 02:47:45;;;;;;;6.20;4.13;;;;;;;17.58;91.68;100177.25;5056370;28;20052;-77
2021/08/03 02:50:16;;;;;;;7.03;4.75;;;;;;;17.50;91.87;100166.28;5056525;28;20041;-78
2021/08/03 02:52:47;;;;;;;7.88;4.75;;;;;;;17.41;92.75;100167.13;5056773;28;20446;-86
2021/08/03 02:55:24;;;;;;;8.13;4.60;;;;;;;17.44;92.97;100173.09;5056232;28;20041;-85
2021/08/03 02:57:57;;;;;;;6.13;4.35;;;;;;;17.34;93.80;100174.06;5056266;28;20543;-87
2021/08/03 03:00:26;;;;;;;6.65;4.90;;;;;;;17.42;93.48;100175.06;5056210;28;20053;-86
2021/08/03 03:02:55;;;;;;;5.78;4.43;;;;;;;17.64;91.70;100179.38;5056720;28;20045;-86
2021/08/03 03:05:28;;;;;;;8.25;4.72;;;;;;;17.80;90.85;100181.56;5056190;28;20041;-86
2021/08/03 03:08:00;;;;;;;;;;;;;;;17.67;91.63;100184.50;5056758;28;20055;-78
2021/08/03 03:10:31;;;;;;;9.43;4.88;;;;;;;17.51;92.58;100186.88;5055958;28;19924;-78
2021/08/03 03:13:08;;;;;;;8.63;5.53;;;;;;;17.51;92.56;100188.72;5056427;28;20110;-78
2021/08/03 03:15:36;;;;;;;7.72;5.00;;;;;;;17.38;93.50;100199.75;5055015;28;20110;-78
2021/08/03 03:18:05;;;;;;;9.57;5.03;;;;;;;17.22;94.87;100197.56;5056126;28;20048;-79
2021/08/03 03:20:35;;;;;;;7.60;5.03;;;;;;;17.15;95.82;100199.94;5054665;28;20459;-77
2021/08/03 03:23:04;;;;;;;8.93;5.50;;;;;;;17.14;96.26;100208.16;5055992;28;20041;-78
2021/08/03 03:25:32;;;;;;;8.18;5.60;;;;;;;17.13;96.31;100211.84;5055744;28;20140;-78
2021/08/03 03:28:05;;;;;;;7.43;4.72;;;;;;;17.27;95.58;100205.22;5055974;28;20168;-80
2021/08/03 03:30:35;;;;;;;10.68;5.85;;;;;;;17.32;95.04;100211.09;5055554;28;20045;-80
2021/08/03 03:33:05;;;;;;;7.22;5.47;;;;;;;17.37;93.84;100211.50;5055621;28;20053;-79
2021/08/03 03:35:36;;;;;;;8.48;5.25;;;;;;;17.54;92.71;100216.25;5055473;28;20072;-79
2021/08/03 03:38:06;;;;;;;8.43;4.65;;;;;;;17.60;92.66;100209.47;5055903;28;20041;-80
2021/08/03 03:40:35;;;;;;;7.65;4.88;;;;;;;17.75;91.29;100210.78;5054555;28;20044;-85
2021/08/03 03:43:04;;;;;;;7.15;4.88;;;;;;;17.61;92.33;100221.97;5055557;28;20491;-86
2021/08/03 03:45:33;;;;;;;8.20;5.35;;;;;;;17.52;92.78;100215.53;5055124;28;20095;-81
2021/08/03 03:48:04;;;;;;;7.97;4.80;;;;;;;17.53;92.81;100219.09;5055415;28;20049;-81
2021/08/03 03:50:37;;;;;;;9.48;5.45;;;;;;;17.53;93.37;100225.34;5055332;28;20071;-87
2021/08/03 03:53:10;;;;;;;9.88;5.00;;;;;;;17.60;93.17;100226.50;5054210;28;20408;-87
2021/08/03 03:55:41;;;;;;;7.05;4.75;;;;;;;17.75;91.88;100218.88;5055076;28;20514;-77
2021/08/03 03:58:10;;;;;;;8.10;5.00;;;;;;;17.70;91.91;100226.56;5065960;28;20051;-85
2021/08/03 04:00:39;;;;;;;6.90;4.97;;;;;;;17.69;92.32;100220.31;5069827;28;20041;-85
2021/08/03 04:03:11;;;;;;;8.32;4.78;;;;;;;17.83;91.84;100223.59;5068824;28;20048;-85
2021/08/03 04:05:44;;;;;;;9.50;5.13;;;;;;;18.12;91.08;100219.06;5059543;28;20067;-85
2021/08/03 04:08:13;;;;;;;7.68;4.82;;;;;;;18.68;87.82;100221.06;5055816;28;20045;-85
2021/08/03 04:10:41;;;;;;;7.85;5.00;;;;;;;19.37;84.40;100226.13;5055365;28;20199;-85
2021/08/03 04:13:12;;;;;;;7.68;5.43;;;;;;;20.09;80.29;100220.88;5055379;28;20542;-83
2021/08/03 04:15:40;;;;;;;8.43;4.80;;;;;;;20.86;76.21;100214.78;5055289;28;20041;-80
2021/08/03 04:18:08;;;;;;;6.50;4.07;;;;;;;21.31;73.90;100211.00;5055358;28;20121;-81
2021/08/03 04:20:37;;;;;;;6.70;4.25;;;;;;;21.66;73.03;100212.66;5054904;28;20041;-81
2021/08/03 04:23:06;;;;;;;6.20;3.60;;;;;;;21.89;71.58;100213.75;5055337;28;20095;-82
2021/08/03 04:25:34;;;;;;;5.85;3.70;;;;;;;22.08;70.81;100209.91;5054592;28;20051;-79
2021/08/03 04:28:03;;;;;;;6.07;3.70;;;;;;;22.39;69.88;100207.41;5055176;28;20399;-79
2021/08/03 04:30:32;;;;;;;8.60;4.00;;;;;;;22.98;67.10;100207.22;5054540;28;20057;-78
2021/08/03 04:33:02;;;;;;;7.15;3.47;;;;;;;22.84;66.62;100209.59;5055190;28;20048;-78
2021/08/03 04:35:31;;;;;;;5.50;3.50;;;;;;;22.21;68.85;100207.56;5054823;28;20040;-78
2021/08/03 04:37:59;;;;;;;5.40;3.10;;;;;;;22.09;68.75;100214.31;5054639;28;20037;-78
2021/08/03 04:40:28;;;;;;;7.45;3.72;;;;;;;22.21;69.27;100213.00;5054115;28;20557;-78
2021/08/03 04:42:59;;;;;;;6.68;3.53;;;;;;;22.27;68.00;100212.31;5054940;28;20124;-80
2021/08/03 04:45:27;;;;;;;5.80;3.40;;;;;;;22.58;67.45;100214.34;5054555;28;20495;-79
2021/08/03 04:47:56;;;;;;;7.28;3.72;;;;;;;23.09;65.12;100212.28;5054392;28;20045;-78
2021/08/03 04:50:26;;;;;;;6.35;3.55;;;;;;;22.87;65.78;100207.56;5053831;28;20131;-74
2021/08/03 04:52:55;;;;;;;6.63;3.47;;;;;;;23.05;65.51;100211.78;5054453;28;20048;-74
2021/08/03 04:55:26;;;;;;;6.60;3.70;;;;;;;23.50;64.00;100209.41;5054088;28;20494;-74
2021/08/03 04:57:55;;;;;;;5.78;3.75;;;;;;;23.72;64.10;100219.56;5054303;28;20047;-73
2021/08/03 05:00:24;;;;;;;6.28;4.40;;;;;;;24.12;62.38;100210.28;5053886;28;20443;-73
2021/08/03 05:02:52;;;;;;;6.13;3.70;;;;;;;24.01;61.77;100215.31;5053883;28;20053;-72
2021/08/03 05:05:21;;;;;;;7.47;4.05;;;;;;;23.97;62.71;100217.56;5053997;28;20470;-72
2021/08/03 05:07:57;;;;;;;5.45;3.83;;;;;;;24.03;62.37;100213.25;5053986;28;20424;-72
2021/08/03 05:10:26;;;;;;;7.65;3.42;;;;;;;23.48;64.17;100216.94;5053484;28;20041;-73
2021/08/03 05:12:57;;;;;;;7.50;3.90;;;;;;;23.29;64.95;100223.63;5053669;28;20131;-71
2021/08/03 05:15:26;;;;;;;8.07;4.00;;;;;;;23.90;62.55;100211.97;5053193;28;20037;-73
2021/08/03 05:17:54;;;;;;;6.35;3.95;;;;;;;24.58;60.26;100213.03;5052916;28;20565;-71
2021/08/03 05:20:22;;;;;;;5.90;3.67;;;;;;;24.82;59.16;100220.16;5053825;28;20407;-71
2021/08/03 05:22:51;;;;;;;6.07;3.35;;;;;;;24.98;57.81;100228.16;5053755;28;20053;-71
2021/08/03 05:25:20;;;;;;;4.97;3.22;;;;;;;24.89;59.02;100229.28;5053681;28;20077;-70
2021/08/03 05:27:48;;;;;;;5.15;3.30;;;;;;;25.04;58.09;100237.53;5053497;28;20118;-71
2021/08/03 05:30:18;;;;;;;6.78;3.70;;;;;;;24.88;58.20;100237.66;5053371;28;20128;-70
2021/08/03 05:32:46;;;;;;;5.43;3.58;;;;;;;24.97;58.31;100240.09;5053345;28;20128;-72
2021/08/03 05:35:15;;;;;;;5.72;3.30;;;;;;;25.52;55.96;100236.13;5053452;28;20056;-71
2021/08/03 05:37:43;;;;;;;6.20;3.42;;;;;;;25.71;56.06;100244.81;5053143;28;20047;-71
2021/08/03 05:40:13;;;;;;;6.90;3.75;;;;;;;25.64;55.06;100240.06;5053318;28;20037;-71
2021/08/03 05:42:42;;;;;;;6.60;3.97;;;;;;;25.77;55.05;100239.44;5052972;28;20045;-72
2021/08/03 05:45:11;;;;;;;8.93;3.65;;;;;;;25.60;55.27;100246.97;5053322;28;20045;-72
2021/08/03 05:47:41;;;;;;;7.75;3.70;;;;;;;25.57;55.70;100238.28;5053237;28;20045;-71
2021/08/03 05:50:10;;;;;;;8.05;4.05;;;;;;;25.55;56.08;100241.19;5051935;28;20131;-71
2021/08/03 05:52:39;;;;;;;5.50;3.72;;;;;;;25.74;55.54;100234.34;5052898;28;20037;-71
2021/08/03 05:55:08;;;;;;;6.57;3.90;;;;;;;26.21;54.47;100231.09;5053034;28;20450;-72
2021/08/03 05:57:36;;;;;;;8.40;3.60;;;;;;;26.30;52.65;100237.28;5051600;28;20059;-72
2021/08/03 06:00:06;;;;;;;6.78;3.63;;;;;;;26.34;53.17;100232.28;5053413;28;20475;-72
2021/08/03 06:02:34;;;;;;;6.60;3.70;;;;;;;26.61;52.93;100233.41;5052866;28;20384;-72
2021/08/03 06:05:05;;;;;;;6.13;3.53;;;;;;;26.68;52.98;100232.44;5053017;28;20467;-72
2021/08/03 06:07:38;;;;;;;6.38;3.50;;;;;;;26.34;54.15;100240.47;5052731;28;20098;-72
2021/08/03 06:10:08;;;;;;;6.97;3.83;;;;;;;26.50;53.05;100243.00;5053088;28;20408;-72
2021/08/03 06:12:37;;;;;;;6.95;3.58;;;;;;;26.65;53.21;100237.47;5052550;28;20051;-72
2021/08/03 06:15:07;;;;;;;7.07;3.90;;;;;;;26.30;53.88;100247.38;5052480;28;20083;-71
2021/08/03 06:17:37;;;;;;;6.95;4.38;;;;;;;26.63;52.61;100251.31;5052659;28;20037;-71
2021/08/03 06:20:08;;;;;;;7.07;4.20;;;;;;;27.08;51.95;100247.31;5037373;28;20052;-71
2021/08/03 06:22:37;;;;;;;5.90;3.63;;;;;;;27.29;51.22;100246.38;5031330;28;20443;-71
2021/08/03 06:25:14;;;;;;;7.38;3.70;;;;;;;27.53;49.77;100241.47;5031450;28;20034;-71
2021/08/03 06:27:43;;;;;;;9.35;3.95;;;;;;;27.19;49.75;100251.38;5043167;28;20049;-71
2021/08/03 06:30:13;;;;;;;8.95;3.72;;;;;;;26.91;51.02;100255.97;5051814;28;20080;-69
2021/08/03 06:32:44;;;;;;;6.78;3.47;;;;;;;26.87;51.41;100251.94;5052747;28;20431;-71
2021/08/03 06:35:15;;;;;;;6.82;3.72;;;;;;;27.48;49.75;100249.44;5052810;28;20049;-71
2021/08/03 06:37:44;;;;;;;7.18;3.53;;;;;;;27.48;49.44;100254.94;5052615;28;20067;-71
2021/08/03 06:40:12;;;;;;;6.00;3.17;;;;;;;27.56;49.23;100260.25;5052670;28;20052;-70
2021/08/03 06:42:55;;;;;;;6.80;3.78;;;;;;;27.59;49.86;100262.56;5052172;28;20052;-70
2021/08/03 06:45:30;;;;;;;5.68;3.38;;;;;;;27.42;49.33;100272.19;5052750;28;20044;-70
2021/08/03 06:48:03;;;;;;;5.93;3.42;;;;;;;27.52;48.23;100272.66;5052391;28;20045;-70
2021/08/03 06:50:35;;;;;;;6.85;3.28;;;;;;;27.71;47.14;100277.44;5052336;28;20133;-70
2021/08/03 06:53:07;;;;;;;8.45;3.67;;;;;;;27.77;47.47;100270.28;5052480;28;20044;-70
2021/08/03 06:55:40;;;;;;;7.97;3.47;;;;;;;28.02;47.18;100265.13;5052134;28;20041;-70
2021/08/03 06:58:13;;;;;;;6.10;3.83;;;;;;;27.75;47.81;100267.75;5052197;28;20376;-70
2021/08/03 07:00:42;;;;;;;;;;;;;;;28.07;47.75;100279.06;5052739;28;20041;-70
2021/08/03 07:03:11;;;;;;;6.22;3.03;;;;;;;27.86;48.14;100274.53;5052430;28;19966;-70
2021/08/03 07:05:51;;;;;;;8.75;3.72;;;;;;;27.48;49.18;100276.84;5052150;28;20484;-71
2021/08/03 07:08:20;;;;;;;6.97;4.10;;;;;;;27.28;49.26;100277.56;5052395;28;20037;-70
2021/08/03 07:10:52;;;;;;;7.55;4.00;;;;;;;26.95;50.42;100271.81;5052130;28;20488;-72
2021/08/03 07:13:20;;;;;;;7.22;3.83;;;;;;;26.99;50.26;100266.78;5052621;28;20044;-69
2021/08/03 07:15:50;;;;;;;7.43;3.70;;;;;;;27.20;48.96;100277.69;5051872;28;20102;-70
2021/08/03 07:18:21;;;;;;;6.20;3.20;;;;;;;27.17;49.34;100274.53;5050910;28;20044;-70
2021/08/03 07:20:51;;;;;;;6.72;3.55;;;;;;;27.26;49.75;100268.69;5052127;28;20137;-70
2021/08/03 07:23:21;;;;;;;5.72;2.95;;;;;;;27.27;48.83;100264.06;5052100;28;20399;-70
2021/08/03 07:25:51;;;;;;;7.57;3.17;;;;;;;27.34;48.31;100260.34;5051881;28;20045;-70
2021/08/03 07:28:19;;;;;;;7.53;3.10;;;;;;;27.16;47.08;100257.25;5055603;28;20412;-70
2021/08/03 07:30:50;;;;;;;5.90;3.00;;;;;;;27.05;47.12;100260.56;5055589;28;20045;-70
2021/08/03 07:33:20;;;;;;;6.97;2.92;;;;;;;26.73;47.70;100250.97;5056025;28;20047;-69
2021/08/03 07:35:48;;;;;;;9.77;3.80;;;;;;;26.60;49.31;100248.97;5055530;28;20041;-70
2021/08/03 07:38:18;;;;;;;6.55;2.80;;;;;;;26.71;48.04;100242.13;5055721;28;20041;-69
2021/08/03 07:40:46;;;;;;;4.78;2.55;;;;;;;26.56;45.48;100239.47;5055270;28;20051;-70
2021/08/03 07:43:15;;;;;;;6.13;2.70;;;;;;;26.55;46.20;100247.88;5055535;28;20044;-70
2021/08/03 07:45:43;;;;;;;7.45;2.90;;;;;;;26.31;46.74;100249.06;5055410;28;20110;-69
2021/08/03 07:48:11;;;;;;;5.80;2.45;;;;;;;26.25;45.87;100246.09;5055474;28;20044;-69
2021/08/03 07:50:40;;;;;;;4.45;2.30;;;;;;;26.15;44.44;100248.31;5055292;28;20048;-69
2021/08/03 07:53:09;;;;;;;5.07;2.15;;;;;;;26.16;45.31;100243.69;5055386;28;20045;-69
2021/08/03 07:55:38;;;;;;;6.75;2.28;;;;;;;26.12;45.11;100254.13;5055266;28;20041;-69
2021/08/03 07:58:06;;;;;;;6.18;2.40;;;;;;;26.16;44.15;100250.00;5055186;28;20498;-69
2021/08/03 08:00:34;;;;;;;5.05;2.20;;;;;;;26.16;44.10;100250.00;5055280;28;20082;-69
2021/08/03 08:03:05;;;;;;;4.13;2.10;;;;;;;26.12;43.79;100256.88;5055458;28;20090;-70
2021/08/03 08:05:34;;;;;;;4.20;2.22;;;;;;;26.24;44.06;100263.50;5055168;28;20041;-74
2021/08/03 08:08:08;;;;;;;6.95;2.60;;;;;;;26.16;44.65;100263.66;5055181;28;20045;-70
2021/08/03 08:10:38;;;;;;;4.90;2.60;;;;;;;26.09;45.25;100270.94;5054669;28;20041;-69
2021/08/03 08:13:06;;;;;;;5.60;2.65;;;;;;;26.11;45.61;100268.84;5055054;28;20040;-69
2021/08/03 08:15:37;;;;;;;7.38;2.65;;;;;;;26.13;46.42;100280.41;5053539;28;20053;-70
2021/08/03 08:18:08;;;;;;;6.72;2.83;;;;;;;26.15;45.95;100289.31;5055090;28;20045;-69
2021/08/03 08:20:36;;;;;;;6.38;2.95;;;;;;;26.33;46.59;100294.31;5054721;28;20052;-70
2021/08/03 08:23:05;;;;;;;5.28;3.15;;;;;;;26.46;46.06;100294.50;5054769;28;20455;-69
2021/08/03 08:25:33;;;;;;;10.05;2.80;;;;;;;26.51;46.02;100299.38;5054820;28;20055;-69
2021/08/03 08:28:04;;;;;;;4.70;2.90;;;;;;;26.55;45.33;100295.25;5054907;28;20049;-69
2021/08/03 08:30:34;;;;;;;6.80;2.88;;;;;;;26.66;45.37;100291.13;5054843;28;20045;-69
2021/08/03 08:33:02;;;;;;;5.20;2.75;;;;;;;26.69;45.54;100291.56;5054463;28;20103;-69
2021/08/03 08:35:37;;;;;;;5.28;2.70;;;;;;;26.81;45.52;100291.88;5054122;28;20045;-70
2021/08/03 08:38:06;;;;;;;8.85;3.10;;;;;;;26.74;45.65;100296.47;5053791;28;20051;-69
2021/08/03 08:40:40;;;;;;;6.18;2.80;;;;;;;26.68;45.30;100291.78;5054491;28;20372;-70
2021/08/03 08:43:13;;;;;;;6.10;2.75;;;;;;;26.57;45.67;100284.94;5054559;28;20127;-69
2021/08/03 08:45:42;;;;;;;6.45;2.60;;;;;;;26.72;45.64;100291.16;5054425;28;20128;-69
2021/08/03 08:48:12;;;;;;;6.18;2.85;;;;;;;26.78;45.90;100292.28;5054243;28;20048;-69
2021/08/03 08:50:41;;;;;;;5.60;2.40;;;;;;;26.80;45.98;100288.31;5054143;28;20552;-70
2021/08/03 08:53:12;;;;;;;4.05;2.28;;;;;;;27.09;44.57;100279.09;5054406;28;20045;-69
2021/08/03 08:55:41;;;;;;;5.45;2.40;;;;;;;27.37;45.37;100281.00;5054264;28;20048;-71
2021/08/03 08:58:11;;;;;;;4.53;2.63;;;;;;;27.46;43.29;100285.25;5053107;28;20389;-71
2021/08/03 09:00:39;;;;;;;5.75;2.40;;;;;;;27.55;43.27;100272.25;5052722;28;20389;-71
2021/08/03 09:03:07;;;;;;;7.05;2.47;;;;;;;27.41;42.60;100260.38;5053938;28;20449;-71
2021/08/03 09:05:39;;;;;;;4.65;2.30;;;;;;;27.38;43.72;100267.09;5054283;28;20041;-69
2021/08/03 09:08:09;;;;;;;4.63;2.47;;;;;;;27.05;44.53;100252.34;5054541;28;20064;-71
2021/08/03 09:10:39;;;;;;;4.82;2.33;;;;;;;26.96;43.15;100245.28;5054199;28;20095;-71
2021/08/03 09:13:12;;;;;;;8.23;2.53;;;;;;;26.65;44.36;100246.50;5053889;28;20446;-71
2021/08/03 09:15:42;;;;;;;8.20;3.00;;;;;;;26.74;44.98;100249.97;5053877;28;20056;-72
2021/08/03 09:18:13;;;;;;;6.93;2.67;;;;;;;26.71;45.76;100250.34;5053884;28;20037;-71
2021/08/03 09:20:42;;;;;;;6.95;2.00;;;;;;;26.65;44.64;100256.63;5053746;28;20434;-71
2021/08/03 09:23:11;;;;;;;5.82;2.35;;;;;;;26.51;44.38;100252.88;5053704;28;20447;-71
2021/08/03 09:25:40;;;;;;;4.07;2.20;;;;;;;26.45;44.42;100264.63;5053459;28;20090;-75
2021/08/03 09:28:11;;;;;;;5.25;2.00;;;;;;;26.52;43.77;100260.03;5053711;28;20557;-71
2021/08/03 09:30:39;;;;;;;6.80;1.88;;;;;;;26.70;43.73;100263.16;5054028;28;20045;-70
2021/08/03 09:33:08;;;;;;;4.13;1.90;;;;;;;26.69;42.84;100261.47;5053503;28;20044;-71
2021/08/03 09:35:36;;;;;;;3.88;1.80;;;;;;;27.07;43.12;100259.31;5052462;28;20053;-70
2021/08/03 09:38:15;;;;;;;4.20;2.05;;;;;;;27.31;41.64;100244.31;5053317;28;20052;-71
2021/08/03 09:40:43;;;;;;;5.15;2.25;;;;;;;27.46;41.40;100246.06;5053543;28;20049;-71
2021/08/03 09:43:15;;;;;;;4.32;2.40;;;;;;;27.38;41.53;100247.06;5053475;28;20045;-71
2021/08/03 09:46:00;;;;;;;5.57;1.90;;;;;;;27.26;41.05;100245.94;5053026;28;20045;-71
2021/08/03 09:48:30;;;;;;;3.97;2.25;;;;;;;27.54;40.88;100243.16;5053104;28;20048;-71
2021/08/03 09:51:12;;;;;;;3.22;1.77;;;;;;;27.60;39.23;100242.34;5052287;28;20369;-71
2021/08/03 09:53:47;;;;;;;4.18;1.63;;;;;;;27.65;37.47;100240.72;5053180;28;20041;-71
2021/08/03 09:56:18;;;;;;;2.95;1.70;;;;;;;27.52;38.12;100234.31;5053073;28;20492;-71
2021/08/03 09:58:59;;;;;;;3.25;1.75;;;;;;;27.58;37.70;100236.22;5052970;28;20049;-72
2021/08/03 10:01:35;;;;;;;3.63;1.85;;;;;;;27.46;36.50;100241.44;5053382;28;20048;-71
2021/08/03 10:04:08;;;;;;;4.28;1.60;;;;;;;27.49;36.43;100229.22;5053094;28;20484;-71
2021/08/03 10:06:38;;;;;;;2.72;1.45;;;;;;;27.56;36.25;100224.63;5053277;28;20072;-71
2021/08/03 10:09:08;;;;;;;2.42;1.33;;;;;;;27.48;34.57;100227.53;5053101;28;20044;-72
2021/08/03 10:11:36;;;;;;;3.10;1.40;;;;;;;27.18;37.15;100219.56;5053324;28;20041;-71
2021/08/03 10:14:26;;;;;;;3.38;1.50;;;;;;;27.26;36.88;100232.25;5053397;28;20070;-71
2021/08/03 10:16:54;;;;;;;2.95;1.50;;;;;;;27.38;36.50;100234.22;5052720;28;20146;-71
2021/08/03 10:19:24;;;;;;;3.83;2.10;;;;;;;27.37;37.02;100226.22;5052968;28;20048;-71
2021/08/03 10:22:03;;;;;;;3.88;1.70;;;;;;;27.36;36.95;100230.00;5052568;28;20498;-71
2021/08/03 10:24:34;;;;;;;6.32;2.10;;;;;;;27.45;37.38;100233.44;5052921;28;20049;-71
2021/08/03 10:27:07;;;;;;;3.20;1.98;;;;;;;27.47;36.44;100234.91;5052993;28;20049;-71
2021/08/03 10:29:40;;;;;;;4.13;1.70;;;;;;;27.23;37.81;100233.53;5053090;28;20056;-71
2021/08/03 10:32:39;;;;;;;5.25;1.92;;;;;;;27.38;37.27;100233.38;5052722;28;20468;-71
2021/08/03 10:35:13;;;;;;;3.00;1.60;;;;;;;27.37;38.16;100228.97;5052507;28;20452;-72
2021/08/03 10:38:12;;;;;;;4.85;1.70;;;;;;;27.45;35.89;100223.31;5052519;28;20048;-71
2021/08/03 10:41:01;;;;;;;4.75;1.92;;;;;;;27.43;36.27;100224.56;5052502;28;20095;-72
2021/08/03 10:43:48;;;;;;;3.28;1.60;;;;;;;27.52;35.34;100224.19;5053040;28;20102;-71
2021/08/03 10:46:36;;;;;;;2.65;1.40;;;;;;;27.75;34.93;100223.91;5052524;28;20048;-71
2021/08/03 10:49:07;;;;;;;4.45;1.70;;;;;;;27.82;35.97;100223.94;5052436;28;20049;-71
2021/08/03 10:51:46;;;;;;;3.97;1.77;;;;;;;27.89;36.33;100219.31;5052867;28;20041;-71
2021/08/03 10:54:16;;;;;;;2.88;1.58;;;;;;;28.07;34.47;100218.72;5051428;28;20064;-72
2021/08/03 10:57:18;;;;;;;3.40;1.42;;;;;;;28.07;33.68;100221.47;5052708;28;20048;-71
2021/08/03 10:59:59;;;;;;;2.67;1.50;;;;;;;28.06;34.59;100217.03;5052504;28;20044;-72
2021/08/03 11:02:48;;;;;;;4.38;1.50;;;;;;;28.06;34.51;100208.81;5054955;28;20041;-71
2021/08/03 11:05:32;;;;;;;3.03;1.70;;;;;;;28.05;34.54;100204.41;5056468;28;20487;-71
2021/08/03 11:08:41;;;;;;;2.30;1.48;;;;;;;27.98;35.26;100211.75;5056225;28;20044;-71
2021/08/03 11:11:12;;;;;;;3.25;1.70;;;;;;;28.00;35.26;100204.19;5055033;28;20049;-71
2021/08/03 11:13:45;;;;;;;5.35;1.98;;;;;;;27.98;35.65;100209.00;5055388;28;20060;-71
2021/08/03 11:16:44;;;;;;;2.95;1.77;;;;;;;28.04;35.16;100205.44;5056559;28;20044;-71
2021/08/03 11:19:30;;;;;;;3.05;1.60;;;;;;;27.95;34.76;100199.31;5056291;28;20041;-71
2021/08/03 11:21:58;;;;;;;2.70;1.65;;;;;;;28.06;34.19;100195.97;5055958;28;20045;-71
2021/08/03 11:24:44;;;;;;;3.80;2.20;;;;;;;28.20;35.64;100194.09;5056261;28;20527;-71
2021/08/03 11:27:29;;;;;;;6.53;1.90;;;;;;;28.23;35.81;100194.53;5055944;28;20057;-71
2021/08/03 11:29:57;;;;;;;3.80;1.80;;;;;;;27.98;36.24;100182.44;5055739;28;20065;-71
2021/08/03 11:32:25;;;;;;;4.38;1.80;;;;;;;28.14;36.05;100183.97;5055867;28;20037;-70
2021/08/03 11:34:58;;;;;;;3.63;1.65;;;;;;;28.18;35.51;100182.47;5055490;28;20128;-71
2021/08/03 11:37:27;;;;;;;2.90;1.75;;;;;;;28.22;35.92;100175.53;5056025;28;20040;-71
2021/08/03 11:39:57;;;;;;;4.20;1.63;;;;;;;28.26;34.58;100173.22;5055563;28;20051;-72
2021/08/03 11:42:47;;;;;;;3.88;1.88;;;;;;;28.13;34.31;100169.41;5055807;28;20045;-72
2021/08/03 11:45:19;;;;;;;5.43;1.70;;;;;;;27.79;34.82;100159.41;5055462;28;20179;-71
2021/08/03 11:47:50;;;;;;;5.15;1.73;;;;;;;27.70;35.07;100152.44;5055666;28;20041;-71